createdAt,value
2023-05-19T00:02:26.056Z,97496.72
2023-05-19T00:04:53.233Z,97488.22
2023-05-19T00:07:21.898Z,97492.00
2023-05-19T00:09:48.907Z,97491.09
2023-05-19T00:12:16.032Z,97494.56
2023-05-19T00:14:42.882Z,97485.84
2023-05-19T00:17:09.934Z,97488.41
2023-05-19T00:19:38.135Z,97489.50
2023-05-19T00:22:05.351Z,97491.28
2023-05-19T00:24:33.047Z,97493.09
2023-05-19T00:26:59.714Z,97487.47
2023-05-19T00:29:26.610Z,97484.94
2023-05-19T00:31:53.443Z,97481.50
2023-05-19T00:34:20.267Z,97470.09
2023-05-19T00:36:47.084Z,97478.06
2023-05-19T00:39:14.262Z,97478.63
2023-05-19T00:41:41.503Z,97471.22
2023-05-19T00:44:08.223Z,97476.09
2023-05-19T00:46:35.180Z,97476.31
2023-05-19T00:49:01.859Z,97464.88
2023-05-19T00:51:29.674Z,97461.44
2023-05-19T00:53:57.815Z,97467.59
2023-05-19T00:56:24.999Z,97465.25
2023-05-19T00:58:52.077Z,97467.97
2023-05-19T01:01:21.313Z,97466.16
2023-05-19T01:03:48.388Z,97463.44
2023-05-19T01:06:15.501Z,97462.53
2023-05-19T01:08:42.288Z,97459.06
2023-05-19T01:11:10.331Z,97451.81
2023-05-19T01:13:38.182Z,97451.63
2023-05-19T01:16:22.363Z,97457.41
2023-05-19T01:18:56.214Z,97453.03
2023-05-19T01:21:45.729Z,97460.97
2023-05-19T01:24:12.528Z,97459.88
2023-05-19T01:27:00.686Z,97459.50
2023-05-19T01:29:36.335Z,97456.75
2023-05-19T01:32:04.404Z,97457.81
2023-05-19T01:34:31.403Z,97457.59
2023-05-19T01:36:58.938Z,97457.00
2023-05-19T01:39:25.880Z,97454.31
2023-05-19T01:41:53.390Z,97453.19
2023-05-19T01:44:22.177Z,97450.78
2023-05-19T01:46:49.985Z,97457.44
2023-05-19T01:49:16.755Z,97461.19
2023-05-19T01:51:44.741Z,97464.25
2023-05-19T01:54:11.541Z,97448.88
2023-05-19T01:56:54.573Z,97453.34
2023-05-19T01:59:44.410Z,97453.91
2023-05-19T02:02:40.542Z,97456.22
2023-05-19T02:05:14.730Z,97452.19
2023-05-19T02:07:50.944Z,97455.63
2023-05-19T02:10:28.196Z,97447.31
2023-05-19T02:12:59.827Z,97456.81
2023-05-19T02:15:30.468Z,97459.75
2023-05-19T02:17:57.238Z,97460.63
2023-05-19T02:20:23.942Z,97458.63
2023-05-19T02:22:50.737Z,97461.81
2023-05-19T02:25:18.319Z,97454.81
2023-05-19T02:27:45.076Z,97460.75
2023-05-19T02:30:11.898Z,97465.66
2023-05-19T02:32:38.797Z,97458.91
2023-05-19T02:35:06.062Z,97453.81
2023-05-19T02:37:33.243Z,97451.50
2023-05-19T02:39:59.847Z,97459.31
2023-05-19T02:42:26.676Z,97454.75
2023-05-19T02:44:54.860Z,97455.66
2023-05-19T02:47:21.800Z,97450.19
2023-05-19T02:49:48.523Z,97451.06
2023-05-19T02:52:15.651Z,97439.81
2023-05-19T02:54:42.637Z,97442.09
2023-05-19T02:57:09.495Z,97441.94
2023-05-19T02:59:36.729Z,97441.94
2023-05-19T03:02:03.564Z,97437.50
2023-05-19T03:04:30.362Z,97438.94
2023-05-19T03:06:59.960Z,97441.25
2023-05-19T03:09:26.634Z,97430.97
2023-05-19T03:11:53.420Z,97438.91
2023-05-19T03:14:24.035Z,97441.94
2023-05-19T03:16:51.454Z,97450.97
2023-05-19T03:19:18.362Z,97446.94
2023-05-19T03:21:45.249Z,97448.88
2023-05-19T03:24:11.955Z,97443.81
2023-05-19T03:26:38.721Z,97453.22
2023-05-19T03:29:06.012Z,97453.75
2023-05-19T03:31:35.368Z,97449.38
2023-05-19T03:34:03.215Z,97447.94
2023-05-19T03:36:32.859Z,97446.53
2023-05-19T03:39:00.410Z,97446.47
2023-05-19T03:41:27.402Z,97444.69
2023-05-19T03:43:54.084Z,97446.88
2023-05-19T03:46:21.145Z,97444.69
2023-05-19T03:49:06.665Z,97455.00
2023-05-19T03:51:52.042Z,97440.03
2023-05-19T03:54:32.297Z,97447.19
2023-05-19T03:56:59.087Z,97444.38
2023-05-19T03:59:25.932Z,97448.00
2023-05-19T04:01:52.929Z,97440.41
2023-05-19T04:04:19.766Z,97446.94
2023-05-19T04:06:46.788Z,97453.28
2023-05-19T04:09:15.871Z,97449.31
2023-05-19T04:11:43.036Z,97449.50
2023-05-19T04:14:09.774Z,97450.78
2023-05-19T04:16:36.910Z,97457.72
2023-05-19T04:19:03.717Z,97452.34
2023-05-19T04:21:30.659Z,97459.63
2023-05-19T04:23:59.217Z,97450.78
2023-05-19T04:26:26.899Z,97450.00
2023-05-19T04:28:56.588Z,97454.63
2023-05-19T04:31:24.240Z,97453.22
2023-05-19T04:33:53.430Z,97463.59
2023-05-19T04:36:21.752Z,97457.47
2023-05-19T04:38:54.906Z,97458.06
2023-05-19T04:41:24.279Z,97464.66
2023-05-19T04:43:51.432Z,97463.38
2023-05-19T04:46:24.375Z,97466.84
2023-05-19T04:48:55.315Z,97467.81
2023-05-19T04:51:22.260Z,97464.28
2023-05-19T04:53:49.183Z,97473.16
2023-05-19T04:56:16.638Z,97466.84
2023-05-19T04:58:45.011Z,97473.22
2023-05-19T05:01:13.878Z,97470.00
2023-05-19T05:03:40.909Z,97458.78
2023-05-19T05:06:08.024Z,97467.34
2023-05-19T05:08:35.141Z,97464.47
2023-05-19T05:11:02.115Z,97461.78
2023-05-19T05:13:29.179Z,97470.66
2023-05-19T05:15:58.579Z,97469.22
2023-05-19T05:18:26.370Z,97466.69
2023-05-19T05:20:53.521Z,97466.69
2023-05-19T05:23:20.547Z,97461.25
2023-05-19T05:25:49.206Z,97469.59
2023-05-19T05:28:16.894Z,97470.28
2023-05-19T05:30:45.037Z,97468.06
2023-05-19T05:33:14.212Z,97465.09
2023-05-19T05:35:41.713Z,97468.84
2023-05-19T05:38:11.602Z,97474.72
2023-05-19T05:40:39.722Z,97469.34
2023-05-19T05:43:07.630Z,97471.84
2023-05-19T05:45:39.719Z,97470.91
2023-05-19T05:48:07.057Z,97471.91
2023-05-19T05:50:34.270Z,97471.41
2023-05-19T05:53:03.836Z,97477.63
2023-05-19T05:55:31.063Z,97475.84
2023-05-19T05:58:02.126Z,97473.69
2023-05-19T06:00:29.991Z,97470.25
2023-05-19T06:02:57.382Z,97471.13
2023-05-19T06:05:26.160Z,97470.19
2023-05-19T06:07:54.281Z,97474.63
2023-05-19T06:10:25.075Z,97475.25
2023-05-19T06:12:53.375Z,97478.94
2023-05-19T06:15:22.181Z,97472.50
2023-05-19T06:18:00.915Z,97481.69
2023-05-19T06:20:28.095Z,97470.00
2023-05-19T06:22:56.364Z,97472.16
2023-05-19T06:25:26.068Z,97474.00
2023-05-19T06:27:53.211Z,97470.34
2023-05-19T06:30:21.321Z,97472.25
2023-05-19T06:32:57.589Z,97473.84
2023-05-19T06:35:25.539Z,97480.06
2023-05-19T06:37:53.119Z,97472.69
2023-05-19T06:40:20.777Z,97470.25
2023-05-19T06:42:47.614Z,97470.66
2023-05-19T06:45:40.721Z,97471.69
2023-05-19T06:48:07.749Z,97471.13
2023-05-19T06:50:35.092Z,97460.75
2023-05-19T06:53:02.103Z,97462.50
2023-05-19T06:55:29.261Z,97461.91
2023-05-19T06:57:56.156Z,97459.88
2023-05-19T07:00:23.997Z,97463.06
2023-05-19T07:02:53.273Z,97457.69
2023-05-19T07:05:21.810Z,97465.78
2023-05-19T07:07:53.106Z,97465.78
2023-05-19T07:10:24.038Z,97469.97
2023-05-19T07:12:51.685Z,97466.94
2023-05-19T07:15:20.633Z,97466.66
2023-05-19T07:17:48.097Z,97465.94
2023-05-19T07:20:15.044Z,97464.66
2023-05-19T07:22:41.669Z,97456.44
2023-05-19T07:25:09.311Z,97461.28
2023-05-19T07:27:37.064Z,97459.22
2023-05-19T07:30:04.207Z,97449.25
2023-05-19T07:32:30.879Z,97453.44
2023-05-19T07:34:57.792Z,97454.19
2023-05-19T07:37:24.509Z,97452.22
2023-05-19T07:39:51.256Z,97454.13
2023-05-19T07:42:17.975Z,97450.19
2023-05-19T07:44:44.668Z,97453.16
2023-05-19T07:47:11.380Z,97457.91
2023-05-19T07:49:38.338Z,97447.16
2023-05-19T07:52:05.157Z,97444.22
2023-05-19T07:54:31.909Z,97449.81
2023-05-19T07:56:58.585Z,97458.88
2023-05-19T07:59:25.373Z,97458.94
2023-05-19T08:01:52.141Z,97461.63
2023-05-19T08:04:19.040Z,97456.22
2023-05-19T08:06:46.007Z,97462.44
2023-05-19T08:09:12.820Z,97460.31
2023-05-19T08:11:39.476Z,97457.06
2023-05-19T08:14:06.304Z,97457.44
2023-05-19T08:16:32.951Z,97454.75
2023-05-19T08:19:02.732Z,97444.56
2023-05-19T08:21:29.596Z,97437.97
2023-05-19T08:23:57.150Z,97427.47
2023-05-19T08:26:23.955Z,97426.84
2023-05-19T08:28:50.677Z,97432.91
2023-05-19T08:31:18.556Z,97428.34
2023-05-19T08:33:45.697Z,97424.44
2023-05-19T08:36:12.454Z,97417.84
2023-05-19T08:38:39.150Z,97409.94
2023-05-19T08:41:06.237Z,97408.03
2023-05-19T08:43:32.878Z,97413.31
2023-05-19T08:46:00.708Z,97409.75
2023-05-19T08:48:31.203Z,97412.31
2023-05-19T08:51:19.649Z,97412.69
2023-05-19T08:53:50.700Z,97412.25
2023-05-19T08:56:22.712Z,97401.94
2023-05-19T08:58:50.870Z,97407.75
2023-05-19T09:01:18.092Z,97409.56
2023-05-19T09:03:46.416Z,97403.56
2023-05-19T09:06:13.551Z,97400.56
2023-05-19T09:08:41.477Z,97394.56
2023-05-19T09:11:09.684Z,97397.06
2023-05-19T09:13:36.605Z,97397.06
2023-05-19T09:16:03.709Z,97394.78
2023-05-19T09:18:30.794Z,97394.72
2023-05-19T09:21:02.424Z,97393.13
2023-05-19T09:23:30.849Z,97381.41
2023-05-19T09:25:57.682Z,97380.38
2023-05-19T09:28:25.399Z,97388.88
2023-05-19T09:31:11.233Z,97378.38
2023-05-19T09:33:45.512Z,97380.97
2023-05-19T09:36:12.818Z,97380.25
2023-05-19T09:38:39.904Z,97374.81
2023-05-19T09:41:08.036Z,97382.13
2023-05-19T09:43:35.014Z,97370.19
2023-05-19T09:46:10.530Z,97379.66
2023-05-19T09:48:38.709Z,97374.47
2023-05-19T09:51:08.051Z,97368.09
2023-05-19T09:53:35.158Z,97379.50
2023-05-19T09:56:03.316Z,97379.69
2023-05-19T09:58:37.148Z,97371.78
2023-05-19T10:01:04.673Z,97369.72
2023-05-19T10:03:33.038Z,97369.16
2023-05-19T10:06:01.455Z,97369.38
2023-05-19T10:08:30.469Z,97373.59
2023-05-19T10:10:57.637Z,97373.06
2023-05-19T10:13:24.470Z,97375.63
2023-05-19T10:18:23.086Z,97373.38
2023-05-19T10:20:50.255Z,97373.94
2023-05-19T10:23:17.155Z,97379.19
2023-05-19T10:25:44.288Z,97373.97
2023-05-19T10:28:17.395Z,97387.72
2023-05-19T10:30:49.765Z,97383.41
2023-05-19T10:33:18.152Z,97384.44
2023-05-19T10:36:11.761Z,97369.97
2023-05-19T10:39:01.085Z,97368.44
2023-05-19T10:41:51.061Z,97374.69
2023-05-19T10:44:48.778Z,97376.63
2023-05-19T10:47:16.219Z,97382.63
2023-05-19T10:49:42.925Z,97375.38
2023-05-19T10:52:23.474Z,97366.94
2023-05-19T10:54:51.409Z,97361.97
2023-05-19T10:57:18.256Z,97360.16
2023-05-19T10:59:44.990Z,97361.97
2023-05-19T11:02:41.296Z,97361.81
2023-05-19T11:05:18.378Z,97364.44
2023-05-19T11:08:04.553Z,97368.44
2023-05-19T11:10:31.435Z,97367.91
2023-05-19T11:12:58.413Z,97368.59
2023-05-19T11:15:28.324Z,97364.22
2023-05-19T11:17:55.301Z,97370.78
2023-05-19T11:20:26.004Z,97377.59
2023-05-19T11:23:09.756Z,97376.88
2023-05-19T11:25:44.761Z,97381.09
2023-05-19T11:28:14.628Z,97372.00
2023-05-19T11:30:43.142Z,97375.44
2023-05-19T11:33:10.112Z,97375.75
2023-05-19T11:35:37.540Z,97377.31
2023-05-19T11:38:05.727Z,97380.53
2023-05-19T11:40:33.147Z,97384.69
2023-05-19T11:43:01.896Z,97397.25
2023-05-19T11:45:29.829Z,97386.56
2023-05-19T11:48:02.549Z,97392.38
2023-05-19T11:50:31.393Z,97383.75
2023-05-19T11:53:00.118Z,97377.66
2023-05-19T11:55:27.321Z,97378.88
2023-05-19T11:58:04.742Z,97380.81
2023-05-19T12:00:39.974Z,97379.03
2023-05-19T12:03:08.169Z,97378.00
2023-05-19T12:05:41.948Z,97375.50
2023-05-19T12:08:10.244Z,97372.75
2023-05-19T12:10:38.705Z,97382.94
2023-05-19T12:13:08.084Z,97375.09
2023-05-19T12:15:35.245Z,97385.84
2023-05-19T12:18:02.701Z,97385.28
2023-05-19T12:20:32.422Z,97386.84
2023-05-19T12:23:00.541Z,97386.75
2023-05-19T12:25:28.589Z,97390.28
2023-05-19T12:27:59.730Z,97389.00
2023-05-19T12:30:27.913Z,97390.34
2023-05-19T12:32:57.540Z,97388.13
2023-05-19T12:35:33.275Z,97390.75
2023-05-19T12:38:04.744Z,97385.38
2023-05-19T12:40:33.044Z,97387.09
2023-05-19T12:43:00.057Z,97390.69
2023-05-19T12:45:29.760Z,97380.69
2023-05-19T12:47:56.715Z,97389.47
2023-05-19T12:50:30.415Z,97382.31
2023-05-19T12:52:59.624Z,97386.63
2023-05-19T12:55:26.348Z,97382.47
2023-05-19T12:57:56.841Z,97385.28
2023-05-19T13:00:32.822Z,97387.28
2023-05-19T13:03:01.585Z,97389.59
2023-05-19T13:05:29.956Z,97390.16
2023-05-19T13:07:58.330Z,97382.91
2023-05-19T13:10:27.246Z,97380.56
2023-05-19T13:12:58.069Z,97389.31
2023-05-19T13:15:26.430Z,97383.50
2023-05-19T13:17:53.877Z,97375.25
2023-05-19T13:20:21.818Z,97375.91
2023-05-19T13:22:48.917Z,97370.16
2023-05-19T13:25:16.304Z,97372.50
2023-05-19T13:27:46.038Z,97376.69
2023-05-19T13:30:12.897Z,97379.53
2023-05-19T13:32:39.598Z,97375.34
2023-05-19T13:35:06.836Z,97371.44
2023-05-19T13:37:33.606Z,97374.53
2023-05-19T13:40:00.542Z,97374.16
2023-05-19T13:42:27.347Z,97379.53
2023-05-19T13:44:57.197Z,97376.66
2023-05-19T13:47:24.103Z,97370.81
2023-05-19T13:49:51.422Z,97375.63
2023-05-19T13:52:18.779Z,97372.19
2023-05-19T13:54:45.541Z,97374.97
2023-05-19T13:57:12.407Z,97367.63
2023-05-19T13:59:48.937Z,97368.31
2023-05-19T14:02:24.342Z,97379.16
2023-05-19T14:04:51.146Z,97369.97
2023-05-19T14:07:17.919Z,97367.38
2023-05-19T14:09:44.606Z,97364.53
2023-05-19T14:12:12.234Z,97364.63
2023-05-19T14:14:38.892Z,97371.38
2023-05-19T14:17:05.626Z,97366.56
2023-05-19T14:19:32.234Z,97358.25
2023-05-19T14:21:59.021Z,97362.53
2023-05-19T14:24:26.066Z,97371.63
2023-05-19T14:26:53.310Z,97370.28
2023-05-19T14:29:19.923Z,97366.19
2023-05-19T14:31:46.963Z,97361.16
2023-05-19T14:34:17.803Z,97358.31
2023-05-19T14:36:44.728Z,97364.00
2023-05-19T14:39:11.993Z,97369.00
2023-05-19T14:41:38.692Z,97358.59
2023-05-19T14:44:05.882Z,97370.88
2023-05-19T14:46:32.677Z,97366.09
2023-05-19T14:48:59.356Z,97366.28
2023-05-19T14:51:26.040Z,97360.56
2023-05-19T14:53:52.701Z,97362.97
2023-05-19T14:56:19.431Z,97353.53
2023-05-19T14:58:46.132Z,97349.38
2023-05-19T15:01:13.056Z,97351.53
2023-05-19T15:03:39.742Z,97339.25
2023-05-19T15:06:10.781Z,97347.28
2023-05-19T15:08:39.263Z,97336.38
2023-05-19T15:11:05.910Z,97345.94
2023-05-19T15:13:32.666Z,97347.00
2023-05-19T15:16:15.403Z,97343.84
2023-05-19T15:18:43.594Z,97344.56
2023-05-19T15:21:10.399Z,97348.38
2023-05-19T15:23:37.108Z,97343.34
2023-05-19T15:26:03.898Z,97340.50
2023-05-19T15:28:30.995Z,97344.06
2023-05-19T15:30:57.768Z,97350.91
2023-05-19T15:33:24.610Z,97342.53
2023-05-19T15:35:52.341Z,97340.09
2023-05-19T15:38:22.109Z,97340.66
2023-05-19T15:40:48.985Z,97338.44
2023-05-19T15:43:15.732Z,97335.44
2023-05-19T15:45:42.497Z,97332.78
2023-05-19T15:48:09.197Z,97335.41
2023-05-19T15:50:36.458Z,97322.66
2023-05-19T15:53:03.541Z,97329.41
2023-05-19T15:55:30.459Z,97336.81
2023-05-19T15:57:57.132Z,97314.13
2023-05-19T16:00:23.922Z,97319.00
2023-05-19T16:02:50.695Z,97318.59
2023-05-19T16:05:17.960Z,97319.63
2023-05-19T16:07:45.055Z,97309.66
2023-05-19T16:10:11.946Z,97315.06
2023-05-19T16:12:38.645Z,97304.19
2023-05-19T16:15:05.865Z,97308.66
2023-05-19T16:17:32.712Z,97301.34
2023-05-19T16:19:59.410Z,97302.53
2023-05-19T16:22:26.217Z,97296.00
2023-05-19T16:24:53.070Z,97299.88
2023-05-19T16:27:19.755Z,97299.44
2023-05-19T16:29:46.427Z,97299.75
2023-05-19T16:32:13.155Z,97293.19
2023-05-19T16:34:39.958Z,97289.44
2023-05-19T16:37:06.692Z,97291.34
2023-05-19T16:39:37.023Z,97301.59
2023-05-19T16:42:04.688Z,97285.50
2023-05-19T16:44:31.441Z,97282.91
2023-05-19T16:46:58.237Z,97272.44
2023-05-19T16:49:24.966Z,97276.59
2023-05-19T16:51:53.120Z,97274.19
2023-05-19T16:54:20.892Z,97284.78
2023-05-19T16:56:47.620Z,97280.13
2023-05-19T16:59:14.371Z,97279.00
2023-05-19T17:01:41.337Z,97286.34
2023-05-19T17:04:08.251Z,97288.38
2023-05-19T17:06:35.093Z,97290.41
2023-05-19T17:09:02.180Z,97278.69
2023-05-19T17:11:28.914Z,97283.44
2023-05-19T17:13:55.610Z,97290.53
2023-05-19T17:16:23.544Z,97289.38
2023-05-19T17:18:50.386Z,97291.47
2023-05-19T17:21:17.763Z,97292.66
2023-05-19T17:23:44.589Z,97289.56
2023-05-19T17:26:11.535Z,97281.56
2023-05-19T17:28:38.200Z,97280.84
2023-05-19T17:31:12.344Z,97283.91
2023-05-19T17:33:39.147Z,97289.47
2023-05-19T17:36:06.425Z,97285.53
2023-05-19T17:38:33.290Z,97287.72
2023-05-19T17:41:04.559Z,97287.91
2023-05-19T17:43:31.415Z,97291.06
2023-05-19T17:46:00.928Z,97289.81
2023-05-19T17:48:27.960Z,97292.25
2023-05-19T17:50:54.699Z,97287.13
2023-05-19T17:53:21.796Z,97293.53
2023-05-19T17:55:53.518Z,97291.44
2023-05-19T17:58:20.813Z,97292.88
2023-05-19T18:00:47.513Z,97290.16
2023-05-19T18:03:14.585Z,97294.59
2023-05-19T18:05:43.342Z,97289.97
2023-05-19T18:08:11.022Z,97289.72
2023-05-19T18:10:38.608Z,97285.22
2023-05-19T18:13:06.327Z,97295.69
2023-05-19T18:15:33.330Z,97291.97
2023-05-19T18:18:00.238Z,97286.72
2023-05-19T18:20:27.128Z,97293.06
2023-05-19T18:22:53.757Z,97293.31
2023-05-19T18:25:20.902Z,97290.22
2023-05-19T18:27:47.727Z,97291.03
2023-05-19T18:30:14.575Z,97291.19
2023-05-19T18:32:41.378Z,97292.72
2023-05-19T18:35:08.972Z,97284.47
2023-05-19T18:37:35.765Z,97285.78
2023-05-19T18:40:02.541Z,97283.09
2023-05-19T18:42:29.363Z,97280.13
2023-05-19T18:44:56.068Z,97274.84
2023-05-19T18:47:25.729Z,97281.47
2023-05-19T18:49:52.458Z,97273.38
2023-05-19T18:52:19.877Z,97275.59
2023-05-19T18:54:47.292Z,97278.56
2023-05-19T18:57:14.873Z,97278.34
2023-05-19T18:59:41.737Z,97271.88
2023-05-19T19:02:08.448Z,97273.88
2023-05-19T19:04:35.405Z,97280.13
2023-05-19T19:07:02.271Z,97287.19
2023-05-19T19:09:29.012Z,97272.78
2023-05-19T19:11:55.843Z,97269.66
2023-05-19T19:14:22.598Z,97264.53
2023-05-19T19:16:49.332Z,97277.38
2023-05-19T19:19:16.199Z,97279.31
2023-05-19T19:21:43.136Z,97275.16
2023-05-19T19:24:09.901Z,97284.53
2023-05-19T19:26:38.034Z,97282.38
2023-05-19T19:29:04.805Z,97288.72
2023-05-19T19:31:33.222Z,97291.16
2023-05-19T19:34:03.718Z,97294.91
2023-05-19T19:36:31.868Z,97285.56
2023-05-19T19:38:58.758Z,97293.06
2023-05-19T19:41:26.638Z,97290.19
2023-05-19T19:43:53.396Z,97303.41
2023-05-19T19:46:20.056Z,97296.38
2023-05-19T19:48:46.821Z,97295.06
2023-05-19T19:51:13.502Z,97293.75
2023-05-19T19:53:40.280Z,97295.94
2023-05-19T19:56:07.304Z,97287.13
2023-05-19T19:58:33.992Z,97290.31
2023-05-19T20:01:03.105Z,97287.72
2023-05-19T20:03:30.174Z,97291.56
2023-05-19T20:05:57.094Z,97292.56
2023-05-19T20:08:24.855Z,97299.63
2023-05-19T20:10:51.665Z,97291.41
2023-05-19T20:13:19.002Z,97300.34
2023-05-19T20:15:46.739Z,97297.91
2023-05-19T20:18:13.698Z,97295.88
2023-05-19T20:20:40.531Z,97292.56
2023-05-19T20:23:10.413Z,97292.44
2023-05-19T20:25:57.873Z,97295.47
2023-05-19T20:28:29.683Z,97296.47
2023-05-19T20:30:56.432Z,97292.44
2023-05-19T20:33:23.156Z,97296.88
2023-05-19T20:35:49.802Z,97292.72
2023-05-19T20:38:16.637Z,97295.59
2023-05-19T20:40:43.389Z,97302.50
2023-05-19T20:43:10.197Z,97297.31
2023-05-19T20:45:37.114Z,97293.28
2023-05-19T20:48:04.651Z,97290.53
2023-05-19T20:50:31.938Z,97286.38
2023-05-19T20:52:58.908Z,97284.78
2023-05-19T20:55:25.550Z,97288.94
2023-05-19T20:57:52.241Z,97292.38
2023-05-19T21:00:18.971Z,97299.81
2023-05-19T21:02:45.780Z,97287.41
2023-05-19T21:05:12.517Z,97288.72
2023-05-19T21:07:39.271Z,97290.31
2023-05-19T21:10:06.580Z,97294.78
2023-05-19T21:12:34.342Z,97279.97
2023-05-19T21:15:01.907Z,97268.81
2023-05-19T21:17:28.706Z,97258.97
2023-05-19T21:19:58.080Z,97273.47
2023-05-19T21:22:26.461Z,97274.00
2023-05-19T21:24:56.450Z,97279.75
2023-05-19T21:27:23.306Z,97282.25
2023-05-19T21:29:54.236Z,97277.38
2023-05-19T21:32:21.684Z,97276.81
2023-05-19T21:34:48.395Z,97279.28
2023-05-19T21:37:17.307Z,97272.06
2023-05-19T21:39:44.407Z,97274.50
2023-05-19T21:42:11.260Z,97270.78
2023-05-19T21:44:38.079Z,97272.78
2023-05-19T21:47:04.896Z,97278.47
2023-05-19T21:49:31.685Z,97267.81
2023-05-19T21:51:58.462Z,97275.13
2023-05-19T21:54:25.162Z,97265.66
2023-05-19T21:56:51.866Z,97266.03
2023-05-19T21:59:19.505Z,97271.50
2023-05-19T22:01:46.845Z,97278.00
2023-05-19T22:04:15.981Z,97272.22
2023-05-19T22:06:43.261Z,97263.09
2023-05-19T22:09:10.113Z,97266.16
2023-05-19T22:11:36.870Z,97265.44
2023-05-19T22:14:03.482Z,97264.06
2023-05-19T22:16:31.215Z,97267.53
2023-05-19T22:18:58.140Z,97264.22
2023-05-19T22:21:24.966Z,97262.94
2023-05-19T22:23:52.306Z,97254.75
2023-05-19T22:26:19.020Z,97251.16
2023-05-19T22:28:45.772Z,97247.53
2023-05-19T22:31:12.441Z,97242.66
2023-05-19T22:33:39.153Z,97243.00
2023-05-19T22:36:06.410Z,97238.31
2023-05-19T22:38:33.154Z,97241.94
2023-05-19T22:40:59.890Z,97232.88
2023-05-19T22:43:26.599Z,97236.50
2023-05-19T22:45:53.247Z,97236.31
2023-05-19T22:48:19.965Z,97239.94
2023-05-19T22:50:46.757Z,97232.56
2023-05-19T22:53:13.479Z,97237.31
2023-05-19T22:55:40.400Z,97234.41
2023-05-19T22:58:07.185Z,97226.13
2023-05-19T23:00:33.848Z,97227.09
2023-05-19T23:03:00.795Z,97227.16
2023-05-19T23:05:27.512Z,97223.00
2023-05-19T23:07:54.277Z,97219.94
2023-05-19T23:10:21.072Z,97215.78
2023-05-19T23:12:48.832Z,97212.84
2023-05-19T23:15:15.749Z,97213.69
2023-05-19T23:17:42.473Z,97209.88
2023-05-19T23:20:09.647Z,97206.56
2023-05-19T23:22:36.421Z,97206.97
2023-05-19T23:25:07.601Z,97198.63
2023-05-19T23:27:35.495Z,97193.03
2023-05-19T23:30:02.494Z,97197.91
2023-05-19T23:32:29.371Z,97193.91
2023-05-19T23:34:56.120Z,97197.91
2023-05-19T23:37:22.876Z,97182.88
2023-05-19T23:39:49.501Z,97185.16
2023-05-19T23:42:16.247Z,97178.28
2023-05-19T23:44:42.841Z,97177.19
2023-05-19T23:47:09.714Z,97177.91
2023-05-19T23:49:36.623Z,97177.75
2023-05-19T23:52:03.343Z,97177.19
2023-05-19T23:54:30.583Z,97183.34
2023-05-19T23:56:57.460Z,97176.78
2023-05-19T23:59:24.117Z,97183.25
